Time;durP1;ratioP1;P1;durP2;ratioP2;P2;SDS_P1;SDS_P2;PMS_P1;PMS_P2;Temp;Humidity;BMP_temperature;BMP_pressure;BME280_temperature;BME280_humidity;BME280_pressure;Samples;Min_cycle;Max_cycle;Signal;HPM_P1;HPM_P2
2021/04/18 00:04:29;;;;;;;12.93;7.05;;;;;;;;;;10013737;29;20506;-62
2021/04/18 00:09:27;;;;;;;6.65;6.00;;;;;;;;;;10014846;29;20079;-63
2021/04/18 00:14:26;;;;;;;8.07;6.63;;;;;;;;;;10013127;29;20074;-61
2021/04/18 00:19:23;;;;;;;8.25;5.57;;;;;;;;;;10014091;29;20052;-62
2021/04/18 00:24:20;;;;;;;7.63;6.30;;;;;;;;;;10011686;29;20080;-64
2021/04/18 00:29:18;;;;;;;8.90;6.93;;;;;;;;;;10014362;29;20094;-62
2021/04/18 00:34:16;;;;;;;6.90;5.93;;;;;;;;;;10012513;29;20079;-61
2021/04/18 00:39:13;;;;;;;7.50;6.43;;;;;;;;;;10013670;29;20079;-62
2021/04/18 00:44:11;;;;;;;7.18;5.40;;;;;;;;;;10019059;29;20079;-62
2021/04/18 00:49:09;;;;;;;8.60;5.93;;;;;;;;;;10020613;29;20518;-62
2021/04/18 00:54:07;;;;;;;6.50;5.90;;;;;;;;;;10019550;29;20107;-62
2021/04/18 00:59:05;;;;;;;6.78;5.93;;;;;;;;;;10021694;29;20323;-62
2021/04/18 01:04:03;;;;;;;6.53;5.90;;;;;;;;;;10018014;29;20401;-62
2021/04/18 01:09:00;;;;;;;6.63;5.20;;;;;;;;;;10018789;29;20553;-62
2021/04/18 01:13:59;;;;;;;6.68;5.75;;;;;;;;;;10018458;29;20072;-63
2021/04/18 01:18:57;;;;;;;7.60;5.65;;;;;;;;;;10018812;29;20546;-63
2021/04/18 01:23:56;;;;;;;9.73;6.18;;;;;;;;;;10017787;29;20083;-63
2021/04/18 01:29:20;;;;;;;6.32;5.50;;;;;;;;;;10021053;29;20079;-60
2021/04/18 01:34:18;;;;;;;6.75;6.05;;;;;;;;;;10018137;29;20075;-62
2021/04/18 01:39:20;;;;;;;6.25;5.60;;;;;;;;;;10015502;29;20509;-61
2021/04/18 01:44:18;;;;;;;8.25;5.90;;;;;;;;;;10020644;29;20430;-62
2021/04/18 01:49:17;;;;;;;8.00;5.93;;;;;;;;;;10012808;29;20113;-62
2021/04/18 01:54:15;;;;;;;9.20;5.53;;;;;;;;;;10021187;29;20087;-62
2021/04/18 01:59:15;;;;;;;10.20;5.65;;;;;;;;;;10018577;29;20533;-61
2021/04/18 02:04:26;;;;;;;6.05;5.47;;;;;;;;;;10015756;29;20083;-62
2021/04/18 02:09:34;;;;;;;7.05;5.13;;;;;;;;;;10017020;29;20120;-62
2021/04/18 02:14:35;;;;;;;9.63;5.70;;;;;;;;;;10015165;29;20075;-62
2021/04/18 02:19:37;;;;;;;6.93;5.93;;;;;;;;;;10016073;29;20086;-62
2021/04/18 02:24:37;;;;;;;6.32;5.68;;;;;;;;;;10017629;29;20096;-62
2021/04/18 02:29:36;;;;;;;6.68;6.03;;;;;;;;;;10017760;29;20060;-62
2021/04/18 02:34:41;;;;;;;6.57;5.53;;;;;;;;;;10015042;29;20602;-62
2021/04/18 02:39:39;;;;;;;7.35;5.53;;;;;;;;;;10017192;29;20525;-63
2021/04/18 02:44:38;;;;;;;6.82;6.03;;;;;;;;;;10014452;29;20060;-62
2021/04/18 02:49:37;;;;;;;7.13;6.40;;;;;;;;;;10015729;29;20052;-62
2021/04/18 02:54:35;;;;;;;7.75;6.95;;;;;;;;;;10014897;29;20095;-62
2021/04/18 02:59:34;;;;;;;8.73;7.22;;;;;;;;;;10013652;29;20048;-62
2021/04/18 03:04:33;;;;;;;8.55;7.72;;;;;;;;;;10012913;29;20084;-61
2021/04/18 03:09:30;;;;;;;8.93;7.93;;;;;;;;;;10016446;29;20094;-61
2021/04/18 03:14:28;;;;;;;9.80;7.15;;;;;;;;;;10013624;29;20079;-62
2021/04/18 03:19:28;;;;;;;9.70;7.57;;;;;;;;;;10015017;29;20075;-62
2021/04/18 03:24:30;;;;;;;9.25;7.18;;;;;;;;;;10014221;29;20075;-62
2021/04/18 03:29:28;;;;;;;10.23;7.13;;;;;;;;;;10015635;29;20075;-60
2021/04/18 03:34:26;;;;;;;8.18;6.88;;;;;;;;;;10013922;29;20489;-61
2021/04/18 03:39:23;;;;;;;9.27;7.78;;;;;;;;;;10015819;29;20533;-60
2021/04/18 03:44:25;;;;;;;10.63;7.60;;;;;;;;;;10013239;29;20048;-62
2021/04/18 03:49:22;;;;;;;9.57;7.70;;;;;;;;;;10014528;29;20068;-62
2021/04/18 03:54:32;;;;;;;9.73;8.77;;;;;;;;;;10012388;29;20092;-61
2021/04/18 03:59:32;;;;;;;8.73;7.88;;;;;;;;;;10013281;29;20055;-60
2021/04/18 04:04:30;;;;;;;9.68;8.70;;;;;;;;;;10013543;29;20068;-60
2021/04/18 04:09:29;;;;;;;10.35;9.30;;;;;;;;;;10011891;29;20514;-61
2021/04/18 04:14:27;;;;;;;10.40;9.27;;;;;;;;;;10014668;29;20102;-61
2021/04/18 04:19:29;;;;;;;10.93;9.82;;;;;;;;;;10020899;29;20051;-62
2021/04/18 04:25:03;;;;;;;11.00;9.15;;;;;;;;;;9992721;29;20088;-63
2021/04/18 04:30:00;;;;;;;12.50;9.77;;;;;;;;;;10020892;29;20523;-63
2021/04/18 04:34:58;;;;;;;11.90;10.60;;;;;;;;;;10023920;29;20086;-63
2021/04/18 04:39:56;;;;;;;11.38;10.20;;;;;;;;;;10020146;29;20083;-64
2021/04/18 04:44:53;;;;;;;13.05;11.75;;;;;;;;;;10021019;29;20067;-62
2021/04/18 04:49:50;;;;;;;14.07;12.48;;;;;;;;;;10019181;29;20080;-61
2021/04/18 04:54:48;;;;;;;13.32;11.48;;;;;;;;;;10020755;29;20141;-61
2021/04/18 04:59:46;;;;;;;13.93;12.35;;;;;;;;;;10012904;29;20503;-62
2021/04/18 05:04:43;;;;;;;15.07;13.52;;;;;;;;;;10025986;29;20470;-62
2021/04/18 05:09:40;;;;;;;14.32;12.82;;;;;;;;;;10019322;29;20082;-61
2021/04/18 05:14:39;;;;;;;14.48;13.02;;;;;;;;;;10019653;29;20080;-62
2021/04/18 05:19:36;;;;;;;19.02;15.48;;;;;;;;;;10019768;29;20079;-60
2021/04/18 05:24:33;;;;;;;25.05;18.13;;;;;;;;;;10020784;29;20082;-61
2021/04/18 05:29:31;;;;;;;18.33;15.15;;;;;;;;;;10032886;29;20072;-62
2021/04/18 05:34:29;;;;;;;19.58;16.15;;;;;;;;;;10018401;29;20074;-59
2021/04/18 05:39:27;;;;;;;21.88;16.90;;;;;;;;;;10013446;29;20478;-61
2021/04/18 05:44:25;;;;;;;21.45;19.13;;;;;;;;;;10020860;29;20083;-62
2021/04/18 05:49:22;;;;;;;19.33;15.77;;;;;;;;;;10012974;29;20090;-62
2021/04/18 05:54:20;;;;;;;20.00;17.92;;;;;;;;;;10020778;29;20482;-62
2021/04/18 05:59:18;;;;;;;20.35;17.52;;;;;;;;;;10018828;29;20091;-61
2021/04/18 06:04:15;;;;;;;17.35;15.02;;;;;;;;;;10011522;29;20501;-61
2021/04/18 06:09:13;;;;;;;21.08;16.10;;;;;;;;;;10009910;29;20079;-62
2021/04/18 06:14:11;;;;;;;18.55;16.70;;;;;;;;;;10007827;29;20122;-62
2021/04/18 06:19:08;;;;;;;19.88;16.92;;;;;;;;;;10008023;29;20067;-62
2021/04/18 06:24:06;;;;;;;19.35;15.80;;;;;;;;;;10020057;29;20083;-63
2021/04/18 06:29:03;;;;;;;17.15;15.43;;;;;;;;;;10016294;29;20094;-60
2021/04/18 06:34:02;;;;;;;18.70;16.17;;;;;;;;;;10014425;29;20087;-62
2021/04/18 06:38:59;;;;;;;26.67;20.75;;;;;;;;;;10015905;29;20067;-62
2021/04/18 06:43:56;;;;;;;18.90;15.98;;;;;;;;;;10014240;29;20082;-62
2021/04/18 06:48:54;;;;;;;23.05;19.73;;;;;;;;;;10015749;29;20063;-62
2021/04/18 06:53:52;;;;;;;25.30;20.30;;;;;;;;;;10013759;29;20075;-62
2021/04/18 06:58:50;;;;;;;19.55;17.50;;;;;;;;;;10014771;29;20075;-61
2021/04/18 07:04:07;;;;;;;20.00;17.92;;;;;;;;;;10013371;29;20103;-62
2021/04/18 07:09:05;;;;;;;16.48;14.73;;;;;;;;;;10015985;29;20696;-61
2021/04/18 07:14:18;;;;;;;22.77;16.48;;;;;;;;;;10013219;29;20079;-63
2021/04/18 07:19:19;;;;;;;18.75;15.60;;;;;;;;;;10014595;29;20078;-64
2021/04/18 07:24:17;;;;;;;18.50;16.40;;;;;;;;;;10012824;29;20090;-62
2021/04/18 07:29:15;;;;;;;18.17;14.82;;;;;;;;;;10014393;29;20087;-62
2021/04/18 07:34:13;;;;;;;19.05;16.10;;;;;;;;;;10012082;29;20080;-62
2021/04/18 07:39:12;;;;;;;19.90;16.13;;;;;;;;;;10013519;29;20083;-62
2021/04/18 07:44:15;;;;;;;20.10;16.10;;;;;;;;;;10012296;29;20068;-62
2021/04/18 07:49:15;;;;;;;18.88;16.52;;;;;;;;;;10013497;29;20080;-61
2021/04/18 07:54:13;;;;;;;27.40;19.25;;;;;;;;;;10012122;29;20079;-62
2021/04/18 07:59:12;;;;;;;19.95;17.83;;;;;;;;;;10013295;29;20068;-63
2021/04/18 08:04:10;;;;;;;24.67;18.05;;;;;;;;;;10011774;29;20103;-62
2021/04/18 08:09:15;;;;;;;22.20;18.77;;;;;;;;;;10013400;29;20072;-62
2021/04/18 08:14:17;;;;;;;21.35;18.15;;;;;;;;;;10011310;29;20468;-62
2021/04/18 08:19:16;;;;;;;24.90;19.05;;;;;;;;;;10012652;29;20083;-61
2021/04/18 08:24:30;;;;;;;26.33;20.08;;;;;;;;;;10011588;29;20478;-61
2021/04/18 08:29:29;;;;;;;23.42;20.13;;;;;;;;;;10013159;29;20091;-62
2021/04/18 08:34:27;;;;;;;21.02;18.15;;;;;;;;;;10011420;29;20095;-63
2021/04/18 08:39:26;;;;;;;19.38;17.27;;;;;;;;;;10013126;29;20076;-62
2021/04/18 08:44:25;;;;;;;24.83;19.95;;;;;;;;;;10011295;29;20533;-62
2021/04/18 08:49:27;;;;;;;23.13;17.60;;;;;;;;;;10012392;29;20063;-64
2021/04/18 08:54:25;;;;;;;36.60;29.00;;;;;;;;;;10012388;29;20079;-63
2021/04/18 08:59:23;;;;;;;35.60;29.60;;;;;;;;;;10014538;29;20087;-63
2021/04/18 09:04:21;;;;;;;28.33;22.88;;;;;;;;;;10016102;29;20071;-63
2021/04/18 09:09:19;;;;;;;25.55;21.02;;;;;;;;;;10021238;29;20079;-60
2021/04/18 09:14:19;;;;;;;47.42;33.00;;;;;;;;;;10019345;29;20079;-62
2021/04/18 09:19:23;;;;;;;50.17;39.78;;;;;;;;;;10020779;29;20078;-62
2021/04/18 09:24:21;;;;;;;40.00;30.87;;;;;;;;;;10018768;29;20548;-61
2021/04/18 09:29:18;;;;;;;30.10;26.10;;;;;;;;;;10021075;29;20532;-62
2021/04/18 09:34:19;;;;;;;21.85;19.02;;;;;;;;;;10016879;29;20805;-63
2021/04/18 09:39:16;;;;;;;26.98;22.95;;;;;;;;;;10009846;29;20052;-63
2021/04/18 09:44:27;;;;;;;27.58;21.52;;;;;;;;;;10022849;29;20080;-63
2021/04/18 09:49:25;;;;;;;24.33;16.98;;;;;;;;;;10018031;29;20486;-63
2021/04/18 09:54:26;;;;;;;16.73;14.95;;;;;;;;;;10008322;29;20083;-62
2021/04/18 09:59:27;;;;;;;14.95;13.43;;;;;;;;;;10010019;29;20080;-62
2021/04/18 10:04:25;;;;;;;17.48;14.73;;;;;;;;;;10008995;29;20095;-61
2021/04/18 10:09:23;;;;;;;17.65;14.82;;;;;;;;;;10015208;29;20079;-62
2021/04/18 10:14:20;;;;;;;29.08;20.60;;;;;;;;;;10015440;29;20067;-60
2021/04/18 10:19:19;;;;;;;16.83;15.00;;;;;;;;;;10015231;29;20520;-62
2021/04/18 10:24:33;;;;;;;18.85;16.63;;;;;;;;;;10019131;29;20459;-62
2021/04/18 10:29:31;;;;;;;15.77;14.05;;;;;;;;;;10016480;29;20083;-61
2021/04/18 10:34:30;;;;;;;20.70;18.30;;;;;;;;;;10015024;29;20078;-62
2021/04/18 10:39:27;;;;;;;19.77;14.82;;;;;;;;;;10016334;29;20079;-63
2021/04/18 10:44:26;;;;;;;16.00;13.35;;;;;;;;;;10014335;29;20044;-62
2021/04/18 10:49:24;;;;;;;20.52;15.05;;;;;;;;;;10015230;29;20079;-61
2021/04/18 10:54:23;;;;;;;26.50;22.77;;;;;;;;;;10014153;29;20465;-62
2021/04/18 10:59:21;;;;;;;32.53;26.38;;;;;;;;;;10014794;29;20572;-63
2021/04/18 11:04:19;;;;;;;20.60;17.75;;;;;;;;;;10013779;29;20071;-61
2021/04/18 11:09:17;;;;;;;31.23;21.40;;;;;;;;;;10014836;29;20102;-62
2021/04/18 11:14:16;;;;;;;19.55;17.45;;;;;;;;;;10012714;29;20075;-63
2021/04/18 11:19:13;;;;;;;15.02;13.48;;;;;;;;;;10013896;29;20079;-60
2021/04/18 11:24:11;;;;;;;18.08;15.27;;;;;;;;;;10013536;29;20418;-60
2021/04/18 11:29:08;;;;;;;21.45;13.05;;;;;;;;;;10014929;29;20208;-61
2021/04/18 11:34:07;;;;;;;17.17;15.20;;;;;;;;;;10013713;29;20083;-63
2021/04/18 11:39:05;;;;;;;21.40;19.10;;;;;;;;;;10015455;29;20515;-62
2021/04/18 11:44:03;;;;;;;22.85;19.35;;;;;;;;;;10014466;29;20487;-63
2021/04/18 11:49:01;;;;;;;17.98;16.05;;;;;;;;;;10016619;29;20501;-62
2021/04/18 11:53:59;;;;;;;15.55;13.43;;;;;;;;;;10020619;29;20071;-63
2021/04/18 11:58:57;;;;;;;17.10;15.48;;;;;;;;;;10012066;29;20079;-64
2021/04/18 12:03:54;;;;;;;17.65;14.20;;;;;;;;;;10020222;29;20067;-62
2021/04/18 12:08:52;;;;;;;21.08;16.55;;;;;;;;;;10014205;29;20091;-62
2021/04/18 12:13:51;;;;;;;19.85;16.35;;;;;;;;;;10013042;29;20447;-62
2021/04/18 12:18:48;;;;;;;15.23;12.55;;;;;;;;;;10013776;29;20544;-62
2021/04/18 12:23:46;;;;;;;16.40;14.48;;;;;;;;;;10012849;29;20497;-63
2021/04/18 12:28:43;;;;;;;26.20;19.15;;;;;;;;;;10014424;29;20090;-62
2021/04/18 12:33:41;;;;;;;20.35;17.67;;;;;;;;;;10012802;29;20083;-62
2021/04/18 12:38:40;;;;;;;24.80;16.63;;;;;;;;;;10020398;29;20071;-63
2021/04/18 12:43:38;;;;;;;27.02;20.70;;;;;;;;;;10020115;29;20086;-61
2021/04/18 12:48:36;;;;;;;21.30;15.73;;;;;;;;;;10021747;29;20071;-60
2021/04/18 12:53:35;;;;;;;17.85;13.93;;;;;;;;;;10019696;29;20564;-64
2021/04/18 12:58:33;;;;;;;17.35;13.98;;;;;;;;;;10020249;29;20079;-63
2021/04/18 13:03:30;;;;;;;17.25;13.80;;;;;;;;;;10019091;29;20075;-62
2021/04/18 13:08:28;;;;;;;24.25;17.35;;;;;;;;;;10020001;29;20090;-63
2021/04/18 13:13:26;;;;;;;21.98;15.23;;;;;;;;;;10017633;29;20083;-62
2021/04/18 13:18:24;;;;;;;22.38;18.65;;;;;;;;;;10019045;29;20090;-62
2021/04/18 13:23:21;;;;;;;31.27;24.23;;;;;;;;;;10009231;29;20087;-62
2021/04/18 13:28:19;;;;;;;56.38;38.30;;;;;;;;;;10025207;29;20058;-62
2021/04/18 13:33:17;;;;;;;48.17;31.45;;;;;;;;;;10019950;29;20493;-59
2021/04/18 13:38:14;;;;;;;42.15;29.38;;;;;;;;;;10016892;29;20058;-60
2021/04/18 13:43:12;;;;;;;38.15;25.10;;;;;;;;;;10026472;29;20068;-62
2021/04/18 13:48:10;;;;;;;24.92;17.10;;;;;;;;;;10010354;29;20072;-61
2021/04/18 13:53:10;;;;;;;28.23;18.45;;;;;;;;;;10027077;29;20138;-62
2021/04/18 13:58:08;;;;;;;28.98;19.48;;;;;;;;;;10008860;29;20074;-63
2021/04/18 14:03:05;;;;;;;20.00;14.57;;;;;;;;;;10026772;29;20110;-62
2021/04/18 14:08:04;;;;;;;15.48;11.13;;;;;;;;;;10013820;29;20086;-60
2021/04/18 14:13:02;;;;;;;24.42;17.95;;;;;;;;;;10020896;29;20111;-62
2021/04/18 14:17:59;;;;;;;21.67;15.65;;;;;;;;;;10009840;29;20083;-62
2021/04/18 14:22:57;;;;;;;26.33;17.60;;;;;;;;;;10024913;29;20072;-61
2021/04/18 14:27:54;;;;;;;29.42;22.00;;;;;;;;;;10012146;29;20074;-60
2021/04/18 14:32:53;;;;;;;33.35;22.77;;;;;;;;;;10020936;29;20079;-62
2021/04/18 14:37:51;;;;;;;41.92;27.90;;;;;;;;;;10025951;29;20066;-62
2021/04/18 14:42:48;;;;;;;69.45;39.72;;;;;;;;;;10038207;29;20555;-63
2021/04/18 14:47:45;;;;;;;16.67;14.82;;;;;;;;;;10039579;29;20082;-62
2021/04/18 14:52:44;;;;;;;41.53;30.38;;;;;;;;;;10038358;29;20475;-62
2021/04/18 14:57:45;;;;;;;32.30;24.95;;;;;;;;;;10038767;29;20497;-63
2021/04/18 15:02:43;;;;;;;26.73;19.58;;;;;;;;;;10036349;29;20090;-62
2021/04/18 15:07:40;;;;;;;21.60;16.23;;;;;;;;;;10037871;29;20063;-60
2021/04/18 15:12:39;;;;;;;46.75;29.83;;;;;;;;;;10038128;29;20087;-62
2021/04/18 15:17:37;;;;;;;34.72;26.02;;;;;;;;;;10038253;29;20075;-62
2021/04/18 15:22:34;;;;;;;40.33;28.25;;;;;;;;;;10039115;29;20039;-60
2021/04/18 15:27:32;;;;;;;24.95;19.75;;;;;;;;;;10036339;29;20047;-61
2021/04/18 15:32:30;;;;;;;48.40;35.80;;;;;;;;;;10037562;29;20098;-59
2021/04/18 15:37:28;;;;;;;60.42;39.85;;;;;;;;;;10038663;29;20040;-61
2021/04/18 15:42:25;;;;;;;66.18;49.83;;;;;;;;;;10036551;29;20052;-62
2021/04/18 15:47:24;;;;;;;62.03;46.08;;;;;;;;;;10037620;29;20067;-61
2021/04/18 15:52:22;;;;;;;40.22;23.92;;;;;;;;;;10036147;29;20086;-61
2021/04/18 15:57:19;;;;;;;25.00;22.00;;;;;;;;;;10037696;29;20079;-61
2021/04/18 16:02:17;;;;;;;31.65;25.05;;;;;;;;;;10037347;29;20528;-61
2021/04/18 16:07:15;;;;;;;69.47;39.55;;;;;;;;;;10037305;29;20071;-61
2021/04/18 16:12:15;;;;;;;44.65;31.77;;;;;;;;;;10039575;29;20044;-60
2021/04/18 16:17:13;;;;;;;24.02;18.15;;;;;;;;;;10045163;29;20476;-60
2021/04/18 16:22:10;;;;;;;37.38;27.45;;;;;;;;;;10043638;29;20052;-62
2021/04/18 16:27:08;;;;;;;25.70;20.40;;;;;;;;;;10044996;29;20084;-60
2021/04/18 16:32:07;;;;;;;30.88;21.40;;;;;;;;;;10044560;29;20203;-61
2021/04/18 16:37:04;;;;;;;27.63;19.85;;;;;;;;;;10044590;29;20092;-61
2021/04/18 16:42:02;;;;;;;21.00;16.25;;;;;;;;;;10044210;29;20055;-60
2021/04/18 16:46:59;;;;;;;27.85;21.65;;;;;;;;;;10043838;29;20521;-60
2021/04/18 16:51:58;;;;;;;21.15;17.55;;;;;;;;;;10043750;29;20106;-58
2021/04/18 16:56:55;;;;;;;47.47;27.65;;;;;;;;;;10041806;29;20087;-59
2021/04/18 17:01:52;;;;;;;21.25;16.77;;;;;;;;;;10023695;29;20552;-61
2021/04/18 17:07:12;;;;;;;24.85;22.15;;;;;;;;;;10013934;29;20517;-59
2021/04/18 17:12:12;;;;;;;44.72;36.35;;;;;;;;;;10021480;29;20165;-62
2021/04/18 17:17:09;;;;;;;39.78;33.25;;;;;;;;;;10014970;29;20075;-62
2021/04/18 17:22:07;;;;;;;26.67;19.33;;;;;;;;;;10009919;29;20506;-62
2021/04/18 17:27:05;;;;;;;59.33;39.88;;;;;;;;;;10032531;29;20532;-61
2021/04/18 17:32:03;;;;;;;26.85;21.52;;;;;;;;;;10004909;29;20087;-62
2021/04/18 17:37:01;;;;;;;39.58;30.05;;;;;;;;;;10023003;29;20110;-61
2021/04/18 17:41:59;;;;;;;29.20;23.45;;;;;;;;;;10032769;29;20087;-61
2021/04/18 17:46:58;;;;;;;21.98;19.30;;;;;;;;;;10019395;29;20083;-60
2021/04/18 17:51:56;;;;;;;30.05;24.02;;;;;;;;;;10040689;29;20071;-59
2021/04/18 17:56:53;;;;;;;29.58;22.15;;;;;;;;;;10034338;29;20079;-61
2021/04/18 18:01:51;;;;;;;56.25;34.38;;;;;;;;;;10014444;29;20106;-60
2021/04/18 18:06:50;;;;;;;29.08;25.92;;;;;;;;;;10023154;29;20461;-59
2021/04/18 18:11:47;;;;;;;30.25;25.60;;;;;;;;;;10019338;29;20083;-62
2021/04/18 18:16:45;;;;;;;27.02;21.73;;;;;;;;;;10038381;29;20087;-61
2021/04/18 18:21:42;;;;;;;26.23;21.02;;;;;;;;;;10040008;29;20083;-59
2021/04/18 18:26:41;;;;;;;27.15;20.88;;;;;;;;;;10030324;29;20074;-61
2021/04/18 18:31:41;;;;;;;34.95;24.88;;;;;;;;;;10016915;29;20141;-59
2021/04/18 18:36:39;;;;;;;34.67;28.70;;;;;;;;;;10012527;29;20084;-60
2021/04/18 18:41:37;;;;;;;31.63;25.25;;;;;;;;;;10019624;29;20469;-60
2021/04/18 18:46:36;;;;;;;33.13;24.98;;;;;;;;;;10005709;29;20070;-59
2021/04/18 18:51:36;;;;;;;29.90;24.58;;;;;;;;;;10012814;29;20068;-59
2021/04/18 18:56:33;;;;;;;30.23;23.20;;;;;;;;;;10007580;29;20079;-60
2021/04/18 19:01:31;;;;;;;29.33;24.67;;;;;;;;;;10020367;29;20074;-61
2021/04/18 19:06:30;;;;;;;25.83;23.05;;;;;;;;;;10015885;29;20067;-60
2021/04/18 19:11:27;;;;;;;22.05;19.20;;;;;;;;;;10022300;29;20075;-61
2021/04/18 19:16:24;;;;;;;26.45;21.45;;;;;;;;;;10027474;29;20071;-58
2021/04/18 19:21:22;;;;;;;40.28;28.83;;;;;;;;;;10019565;29;20079;-60
2021/04/18 19:26:21;;;;;;;46.90;34.55;;;;;;;;;;10037897;29;20511;-60
2021/04/18 19:31:18;;;;;;;31.20;27.80;;;;;;;;;;10037204;29;20496;-61
2021/04/18 19:36:16;;;;;;;31.55;24.75;;;;;;;;;;10037811;29;20506;-60
2021/04/18 19:41:13;;;;;;;27.63;21.70;;;;;;;;;;10021393;29;20083;-60
2021/04/18 19:46:12;;;;;;;55.45;29.02;;;;;;;;;;10014937;29;20088;-60
2021/04/18 19:51:09;;;;;;;61.35;30.65;;;;;;;;;;10013859;29;20083;-60
2021/04/18 19:56:07;;;;;;;43.78;27.45;;;;;;;;;;10012590;29;20099;-57
2021/04/18 20:01:05;;;;;;;21.02;16.08;;;;;;;;;;10020943;29;20501;-58
2021/04/18 20:06:03;;;;;;;23.88;18.77;;;;;;;;;;10034053;29;20075;-60
2021/04/18 20:11:00;;;;;;;26.52;17.40;;;;;;;;;;10035109;29;20083;-60
2021/04/18 20:15:58;;;;;;;19.23;16.75;;;;;;;;;;10014753;29;20479;-58
2021/04/18 20:20:56;;;;;;;21.77;15.05;;;;;;;;;;10015839;29;20075;-57
2021/04/18 20:25:54;;;;;;;18.05;15.25;;;;;;;;;;10014211;29;20071;-60
2021/04/18 20:30:52;;;;;;;24.58;15.88;;;;;;;;;;10031731;29;20091;-57
2021/04/18 20:35:50;;;;;;;21.85;15.10;;;;;;;;;;10036327;29;20075;-59
2021/04/18 20:40:47;;;;;;;16.55;13.40;;;;;;;;;;10035450;29;20086;-57
2021/04/18 20:45:45;;;;;;;19.95;13.75;;;;;;;;;;10037181;29;20055;-56
2021/04/18 20:50:42;;;;;;;15.52;13.90;;;;;;;;;;10032337;29;20517;-58
2021/04/18 20:55:40;;;;;;;18.95;13.60;;;;;;;;;;10008786;29;20546;-56
2021/04/18 21:00:37;;;;;;;20.15;16.52;;;;;;;;;;10033982;29;20071;-60
2021/04/18 21:05:35;;;;;;;18.88;15.60;;;;;;;;;;10041825;29;20082;-61
2021/04/18 21:10:32;;;;;;;20.10;14.98;;;;;;;;;;10038085;29;20078;-60
2021/04/18 21:15:30;;;;;;;29.25;20.05;;;;;;;;;;10040737;29;20087;-60
2021/04/18 21:20:27;;;;;;;35.10;21.83;;;;;;;;;;10041631;29;20098;-61
2021/04/18 21:25:27;;;;;;;35.17;22.08;;;;;;;;;;10040792;29;20110;-61
2021/04/18 21:30:25;;;;;;;31.50;22.40;;;;;;;;;;10040221;29;20098;-61
2021/04/18 21:35:22;;;;;;;37.03;21.50;;;;;;;;;;10041072;29;20485;-61
2021/04/18 21:40:19;;;;;;;39.25;21.77;;;;;;;;;;10040409;29;20381;-61
2021/04/18 21:45:18;;;;;;;50.50;26.65;;;;;;;;;;10039399;29;20079;-60
2021/04/18 21:50:15;;;;;;;40.05;23.48;;;;;;;;;;10038962;29;20067;-60
2021/04/18 21:55:13;;;;;;;36.75;26.90;;;;;;;;;;10039043;29;20462;-62
2021/04/18 22:00:13;;;;;;;24.52;15.10;;;;;;;;;;10039543;29;20055;-60
2021/04/18 22:05:12;;;;;;;20.55;15.73;;;;;;;;;;10039786;29;20083;-62
2021/04/18 22:10:10;;;;;;;27.83;17.00;;;;;;;;;;10038660;29;20075;-60
2021/04/18 22:15:08;;;;;;;19.42;16.00;;;;;;;;;;10025050;29;20083;-60
2021/04/18 22:20:06;;;;;;;24.35;16.10;;;;;;;;;;10013797;29;20083;-60
2021/04/18 22:25:05;;;;;;;19.77;15.68;;;;;;;;;;10027239;29;20111;-61
2021/04/18 22:30:04;;;;;;;19.13;15.70;;;;;;;;;;10013267;29;20102;-61
2021/04/18 22:35:01;;;;;;;20.17;15.70;;;;;;;;;;10031848;29;20098;-60
2021/04/18 22:39:58;;;;;;;23.17;15.45;;;;;;;;;;10034275;29;20068;-60
2021/04/18 22:44:57;;;;;;;18.98;17.08;;;;;;;;;;9999407;29;20075;-61
2021/04/18 22:49:54;;;;;;;18.00;14.98;;;;;;;;;;9998172;29;20067;-61
2021/04/18 22:54:52;;;;;;;23.83;19.88;;;;;;;;;;9999484;29;20084;-59
2021/04/18 22:59:49;;;;;;;22.08;16.83;;;;;;;;;;9999250;29;20072;-60
2021/04/18 23:04:47;;;;;;;20.10;15.30;;;;;;;;;;9998292;29;20517;-61
2021/04/18 23:09:45;;;;;;;27.33;20.88;;;;;;;;;;9997945;29;20470;-59
2021/04/18 23:14:44;;;;;;;18.50;13.65;;;;;;;;;;9995320;29;20075;-59
2021/04/18 23:19:43;;;;;;;18.73;16.00;;;;;;;;;;10009143;29;20087;-62
2021/04/18 23:24:41;;;;;;;17.88;14.93;;;;;;;;;;9997618;29;20076;-60
2021/04/18 23:29:39;;;;;;;24.00;15.73;;;;;;;;;;10014354;29;20075;-60
2021/04/18 23:34:36;;;;;;;17.73;14.98;;;;;;;;;;10013775;29;20098;-60
2021/04/18 23:39:34;;;;;;;21.75;14.10;;;;;;;;;;9999716;29;20074;-61
2021/04/18 23:44:32;;;;;;;21.30;16.48;;;;;;;;;;9999454;29;20252;-60
2021/04/18 23:49:29;;;;;;;18.77;14.65;;;;;;;;;;9999318;29;20508;-61
2021/04/18 23:54:27;;;;;;;20.58;13.95;;;;;;;;;;9999050;29;20088;-60
2021/04/18 23:59:24;;;;;;;26.55;16.17;;;;;;;;;;9999196;29;20068;-59
